Odanah, Wisconsin
Current Conditions -  °F | °C
As of 9:53 AM on Saturday 20 Dec 2014 (Local Time) from KASX Reporting Station
Overcast Overcast  
Wind Chill: 28°   Ceiling: 2800
Heat Index: 28°   Visibility: 8mi
Dew Point: 24°   Wind: 3mph
Humidity: 85%   Direction: 190°S
Pressure: 30.2"   Gusts: NA
Location:  46.61°N, 90.7°W
Report Text: KASX 201553Z AUTO 19003KT 8SM OVC028 M02/M04 A3020 RMK AO2 SLP239 T10221044
Loading
Personal Weather Stations






























Interactive Weather Map New forecast layout! Learn more

10-Day Weather Forecast

Advertisements
Track Severe Weather on mobile